Time;durP1;ratioP1;P1;durP2;ratioP2;P2;SDS_P1;SDS_P2;PMS_P1;PMS_P2;Temp;Humidity;BMP_temperature;BMP_pressure;BME280_temperature;BME280_humidity;BME280_pressure;Samples;Min_cycle;Max_cycle;Signal;HPM_P1;HPM_P2
2021/08/06 06:34:00;;;;;;;2.58;2.00;;;;;;;15.58;100.00;98130.78;5085012;27;20413;-81
2021/08/06 06:36:27;;;;;;;3.47;2.30;;;;;;;15.73;100.00;98127.53;5068273;28;20474;-78
2021/08/06 06:38:53;;;;;;;2.90;2.00;;;;;;;15.84;100.00;98136.78;5065872;28;20053;-78
2021/08/06 06:41:20;;;;;;;3.35;2.00;;;;;;;16.17;100.00;98142.59;5057451;28;20053;-81
2021/08/06 06:43:47;;;;;;;3.33;2.17;;;;;;;16.33;99.56;98119.84;5049424;28;20049;-79
2021/08/06 06:46:13;;;;;;;2.80;2.10;;;;;;;16.61;98.02;98138.16;5048576;28;20102;-81
2021/08/06 06:48:40;;;;;;;2.55;1.80;;;;;;;16.69;96.78;98142.41;5051057;28;20139;-81
2021/08/06 06:51:08;;;;;;;2.67;2.08;;;;;;;16.70;98.00;98121.28;5061861;28;20048;-81
2021/08/06 06:53:35;;;;;;;3.30;1.85;;;;;;;16.84;96.54;98121.78;5059852;28;20500;-82
2021/08/06 06:56:02;;;;;;;3.22;2.20;;;;;;;16.66;98.89;98120.94;5055578;28;20053;-81
2021/08/06 06:58:29;;;;;;;2.25;1.95;;;;;;;16.78;97.93;98134.59;5056776;28;20053;-81
2021/08/06 07:00:57;;;;;;;3.45;2.03;;;;;;;16.78;95.40;98134.59;5055567;28;20053;-81
2021/08/06 07:03:24;;;;;;;2.88;2.47;;;;;;;16.94;96.89;98143.94;5067927;28;20099;-81
2021/08/06 07:05:51;;;;;;;3.97;1.60;;;;;;;16.98;97.32;98128.59;5058652;28;20431;-81
2021/08/06 07:08:19;;;;;;;3.42;1.90;;;;;;;17.12;96.75;98129.09;5048379;28;20496;-81
2021/08/06 07:10:46;;;;;;;3.17;1.70;;;;;;;17.31;96.59;98135.09;5054488;28;20237;-81
2021/08/06 07:13:12;;;;;;;2.22;1.70;;;;;;;17.37;96.41;98128.59;5052211;28;20047;-82
2021/08/06 07:15:39;;;;;;;2.92;1.73;;;;;;;17.37;96.50;98136.84;5057604;28;20060;-82
2021/08/06 07:18:06;;;;;;;2.33;1.65;;;;;;;17.58;94.28;98126.13;5048511;28;20052;-82
2021/08/06 07:20:33;;;;;;;3.45;1.85;;;;;;;17.58;94.58;98132.44;5049835;28;20144;-82
2021/08/06 07:23:00;;;;;;;2.92;2.03;;;;;;;17.77;94.02;98138.44;5048960;28;20099;-82
2021/08/06 07:25:28;;;;;;;2.10;1.40;;;;;;;17.77;91.88;98143.94;5048317;28;20053;-82
2021/08/06 07:27:55;;;;;;;2.22;1.55;;;;;;;17.79;92.92;98149.19;5059426;28;20446;-82
2021/08/06 07:30:22;;;;;;;4.05;1.50;;;;;;;17.66;91.88;98145.75;5053397;28;20045;-82
2021/08/06 07:32:49;;;;;;;2.00;1.80;;;;;;;17.60;92.09;98160.50;5056112;28;20045;-82
2021/08/06 07:35:18;;;;;;;3.03;1.60;;;;;;;17.45;93.30;98157.56;5055871;28;20052;-82
2021/08/06 07:37:45;;;;;;;2.85;2.08;;;;;;;17.43;95.04;98159.72;5052000;28;20131;-82
2021/08/06 07:40:15;;;;;;;3.80;1.50;;;;;;;17.17;96.18;98162.94;5049403;28;20072;-82
2021/08/06 07:42:43;;;;;;;2.13;1.60;;;;;;;17.13;95.25;98182.91;5048165;28;20122;-80
2021/08/06 07:45:12;;;;;;;2.65;1.75;;;;;;;17.40;96.32;98188.50;5050013;28;20055;-81
2021/08/06 07:47:39;;;;;;;4.13;1.70;;;;;;;17.43;96.17;98189.94;5045127;28;20041;-80
2021/08/06 07:50:06;;;;;;;4.57;1.67;;;;;;;17.11;95.11;98196.06;5046221;28;20061;-80
2021/08/06 07:52:33;;;;;;;2.58;1.45;;;;;;;16.94;97.42;98194.16;5038489;28;20041;-80
2021/08/06 07:55:00;;;;;;;2.17;1.63;;;;;;;16.77;98.63;98207.88;5038887;28;20053;-81
2021/08/06 07:57:27;;;;;;;1.65;1.45;;;;;;;16.81;99.82;98219.16;5036394;28;20103;-80
2021/08/06 07:59:56;;;;;;;2.88;1.00;;;;;;;16.61;94.02;98205.94;5040260;28;20098;-81
2021/08/06 08:02:23;;;;;;;1.30;0.80;;;;;;;16.73;95.28;98225.91;5048819;28;20049;-78
2021/08/06 08:04:50;;;;;;;1.00;0.70;;;;;;;16.92;94.54;98222.94;5040419;28;20057;-81
2021/08/06 08:07:17;;;;;;;0.98;0.70;;;;;;;16.93;93.86;98203.47;5034458;28;20061;-81
2021/08/06 08:09:44;;;;;;;3.00;1.00;;;;;;;17.06;93.65;98215.22;5045866;28;20044;-81
2021/08/06 08:12:13;;;;;;;1.88;0.70;;;;;;;16.96;91.68;98213.94;5037970;28;20100;-81
2021/08/06 08:14:40;;;;;;;2.00;0.80;;;;;;;17.15;93.82;98220.03;5038067;28;20072;-80
2021/08/06 08:17:08;;;;;;;1.95;0.68;;;;;;;17.20;93.91;98230.25;5038991;28;20049;-79
2021/08/06 08:19:35;;;;;;;2.63;1.10;;;;;;;17.33;92.82;98224.41;5037047;28;20045;-79
2021/08/06 08:22:02;;;;;;;0.85;0.73;;;;;;;17.64;94.18;98230.38;5050904;28;20072;-79
2021/08/06 08:24:29;;;;;;;5.60;0.85;;;;;;;17.61;91.09;98222.59;5052707;28;20045;-79
2021/08/06 08:26:56;;;;;;;0.68;0.68;;;;;;;17.55;90.10;98220.06;5049285;28;20075;-79
2021/08/06 08:29:22;;;;;;;1.20;0.80;;;;;;;17.66;90.72;98228.19;5053792;28;20048;-80
2021/08/06 08:31:49;;;;;;;1.10;0.80;;;;;;;17.77;92.24;98217.34;5052285;28;20141;-79
2021/08/06 08:34:17;;;;;;;1.88;0.70;;;;;;;17.81;90.43;98224.81;5033622;28;20102;-80
2021/08/06 08:36:44;;;;;;;0.88;0.68;;;;;;;17.75;89.55;98219.50;5048432;28;20048;-80
2021/08/06 08:39:11;;;;;;;0.95;0.70;;;;;;;17.80;91.94;98228.63;5036757;28;20053;-80
2021/08/06 08:41:38;;;;;;;1.92;0.50;;;;;;;17.93;93.24;98226.63;5038031;28;20052;-80
2021/08/06 08:44:05;;;;;;;1.35;0.68;;;;;;;17.79;89.63;98212.41;5033598;28;20076;-81
2021/08/06 08:46:34;;;;;;;5.10;0.95;;;;;;;17.80;91.54;98223.16;5041527;28;20041;-80
2021/08/06 08:49:02;;;;;;;2.90;0.90;;;;;;;17.74;90.55;98221.41;5035445;28;20064;-80
2021/08/06 08:51:31;;;;;;;2.08;1.10;;;;;;;17.90;89.36;98221.63;5046854;28;20056;-80
2021/08/06 08:54:01;;;;;;;2.13;0.70;;;;;;;17.93;89.89;98223.88;5043011;28;20485;-80
2021/08/06 08:56:29;;;;;;;;;;;;;;;18.09;88.97;98235.91;5039332;28;20500;-80
2021/08/06 08:58:56;;;;;;;1.10;0.80;;;;;;;18.25;87.62;98224.00;5037196;28;19921;-80
2021/08/06 09:01:23;;;;;;;12.60;1.98;;;;;;;18.45;87.29;98219.81;5038922;28;20049;-80
2021/08/06 09:03:50;;;;;;;3.22;0.90;;;;;;;18.73;86.71;98225.03;5047170;28;20102;-80
2021/08/06 09:06:17;;;;;;;2.83;0.85;;;;;;;19.03;86.16;98212.66;5050799;28;20044;-80
2021/08/06 09:08:46;;;;;;;1.60;0.73;;;;;;;19.28;82.94;98217.53;5034704;28;20389;-80
2021/08/06 09:11:27;;;;;;;0.80;0.80;;;;;;;19.25;82.45;98208.94;5041998;28;20164;-80
2021/08/06 09:13:54;;;;;;;2.10;0.77;;;;;;;19.26;80.08;98216.94;5035888;28;20071;-79
2021/08/06 09:16:21;;;;;;;1.75;0.90;;;;;;;19.22;81.87;98226.00;5042755;28;20104;-79
2021/08/06 09:18:48;;;;;;;1.27;0.75;;;;;;;19.18;79.58;98211.09;5038206;28;20083;-79
2021/08/06 09:21:23;;;;;;;1.42;0.63;;;;;;;19.32;79.61;98222.50;5036815;28;20045;-80
2021/08/06 09:23:54;;;;;;;1.30;0.85;;;;;;;19.36;78.44;98229.97;5038596;28;20492;-80
2021/08/06 09:26:47;;;;;;;0.68;0.68;;;;;;;19.51;78.54;98234.78;5048933;28;20068;-80
2021/08/06 09:29:17;;;;;;;2.63;0.90;;;;;;;19.52;76.13;98230.06;5004060;28;20483;-80
2021/08/06 09:31:55;;;;;;;4.22;0.85;;;;;;;19.88;78.08;98231.13;5045301;28;20052;-79
2021/08/06 09:34:24;;;;;;;1.05;0.70;;;;;;;20.05;73.77;98227.34;5044925;28;20041;-79
2021/08/06 09:37:00;;;;;;;0.80;0.65;;;;;;;20.45;73.72;98215.59;5035826;28;20403;-79
2021/08/06 09:39:32;;;;;;;4.93;0.90;;;;;;;20.71;73.58;98228.66;5039961;28;20045;-79
2021/08/06 09:41:59;;;;;;;5.03;0.88;;;;;;;20.47;72.26;98231.88;5038848;28;20515;-79
2021/08/06 09:44:27;;;;;;;8.15;1.63;;;;;;;20.69;71.78;98226.97;5038698;28;20073;-82
2021/08/06 09:46:55;;;;;;;0.90;0.65;;;;;;;20.73;70.48;98216.25;5031625;28;20049;-80
2021/08/06 09:49:22;;;;;;;1.42;0.75;;;;;;;21.31;69.23;98226.16;5035195;28;20100;-80
2021/08/06 09:51:51;;;;;;;1.33;0.77;;;;;;;21.53;70.16;98223.13;5048690;28;20102;-80
2021/08/06 09:54:20;;;;;;;3.13;0.85;;;;;;;21.18;68.16;98216.50;5041126;28;20049;-80
2021/08/06 09:56:50;;;;;;;0.90;0.50;;;;;;;20.68;67.99;98214.31;5046220;28;20064;-79
2021/08/06 09:59:26;;;;;;;;;;;;;;;20.59;70.27;98213.13;5040643;28;20060;-80
2021/08/06 10:02:11;;;;;;;1.58;0.77;;;;;;;20.84;68.55;98211.53;5036739;28;19921;-80
2021/08/06 10:04:38;;;;;;;1.10;0.55;;;;;;;21.12;67.81;98203.78;5036555;28;20057;-80
2021/08/06 10:07:05;;;;;;;1.52;0.70;;;;;;;20.77;68.43;98206.28;5044205;28;20397;-80
2021/08/06 10:09:32;;;;;;;1.60;0.80;;;;;;;20.75;68.53;98208.50;5040457;28;20053;-80
2021/08/06 10:12:00;;;;;;;1.58;0.57;;;;;;;20.31;67.54;98209.78;5032778;28;20068;-81
2021/08/06 10:14:28;;;;;;;3.25;0.70;;;;;;;20.14;66.86;98214.69;5035060;28;20081;-79
2021/08/06 10:16:55;;;;;;;0.75;0.38;;;;;;;20.61;66.82;98216.47;5031950;28;20412;-81
2021/08/06 10:19:23;;;;;;;2.40;0.70;;;;;;;21.09;63.00;98218.16;5033982;28;20048;-82
2021/08/06 10:21:49;;;;;;;3.17;0.60;;;;;;;21.67;61.72;98212.31;5050911;28;20040;-80
2021/08/06 10:24:17;;;;;;;1.70;0.75;;;;;;;22.15;59.62;98220.16;5042667;28;20045;-81
2021/08/06 10:26:44;;;;;;;4.57;0.50;;;;;;;22.52;58.38;98219.72;5045935;28;20045;-81
2021/08/06 10:29:15;;;;;;;1.55;0.50;;;;;;;22.62;57.83;98204.97;5042732;28;20095;-81
2021/08/06 10:31:43;;;;;;;1.27;0.70;;;;;;;22.72;56.10;98206.84;5043986;28;20045;-81
2021/08/06 10:34:11;;;;;;;1.67;0.60;;;;;;;22.55;58.43;98219.16;5043648;28;20051;-80
2021/08/06 10:36:41;;;;;;;3.03;0.57;;;;;;;21.92;58.80;98215.00;5035142;28;20049;-81
2021/08/06 10:39:42;;;;;;;3.20;0.83;;;;;;;21.13;63.79;98227.56;5043613;28;20064;-81
2021/08/06 10:42:10;;;;;;;3.28;0.70;;;;;;;20.83;61.12;98237.50;5031819;28;20053;-82
2021/08/06 10:44:53;;;;;;;4.68;0.93;;;;;;;20.81;64.26;98246.06;5036462;28;20048;-80
2021/08/06 10:47:21;;;;;;;1.67;0.57;;;;;;;20.74;63.23;98250.19;5046422;28;20077;-81
2021/08/06 10:50:15;;;;;;;1.92;0.80;;;;;;;20.58;62.85;98244.63;5042120;28;20072;-83
2021/08/06 10:52:42;;;;;;;2.70;1.25;;;;;;;20.59;63.68;98228.88;5031485;28;20056;-81
2021/08/06 10:55:18;;;;;;;1.70;0.70;;;;;;;20.68;63.49;98221.75;5039194;28;20044;-80
2021/08/06 10:57:45;;;;;;;0.65;0.50;;;;;;;20.77;64.54;98228.38;5051613;28;20083;-81
2021/08/06 11:00:38;;;;;;;1.63;0.88;;;;;;;20.78;65.54;98229.22;5042001;28;20051;-81
2021/08/06 11:03:25;;;;;;;3.40;0.95;;;;;;;20.63;63.89;98218.94;5034536;28;20493;-81
2021/08/06 11:05:52;;;;;;;4.53;1.00;;;;;;;20.82;64.89;98220.09;5045063;28;20480;-81
2021/08/06 11:08:55;;;;;;;6.22;0.85;;;;;;;20.81;65.46;98235.00;5033223;28;20053;-81
2021/08/06 11:11:46;;;;;;;1.13;0.65;;;;;;;20.78;64.20;98232.81;5050657;28;20087;-81
2021/08/06 11:14:16;;;;;;;0.95;0.70;;;;;;;20.59;65.59;98212.31;5039044;28;20049;-81
2021/08/06 11:17:04;;;;;;;;;;;;;;;20.77;64.67;98236.66;5031679;28;20528;-81
2021/08/06 11:19:33;;;;;;;2.05;0.80;;;;;;;20.75;64.06;98222.31;5034735;28;19927;-80
2021/08/06 11:22:02;;;;;;;1.95;0.88;;;;;;;20.94;62.50;98236.41;5035407;28;20481;-81
2021/08/06 11:24:36;;;;;;;1.33;0.75;;;;;;;21.07;62.31;98234.19;5043172;28;20078;-81
2021/08/06 11:27:03;;;;;;;2.95;0.70;;;;;;;21.64;62.41;98240.53;5035463;28;20230;-81
2021/08/06 11:29:32;;;;;;;2.80;0.77;;;;;;;21.48;60.32;98226.72;5036491;28;20565;-80
2021/08/06 11:32:02;;;;;;;1.45;0.50;;;;;;;21.37;61.80;98236.13;5034433;28;20424;-81
2021/08/06 11:34:48;;;;;;;1.73;0.65;;;;;;;21.06;63.20;98244.41;5046872;28;20041;-82
2021/08/06 11:37:14;;;;;;;4.38;0.77;;;;;;;20.38;66.46;98253.66;5046360;28;20412;-81
2021/08/06 11:40:04;;;;;;;1.52;0.50;;;;;;;19.62;70.40;98239.22;5050961;28;20052;-81
2021/08/06 11:42:35;;;;;;;4.30;0.60;;;;;;;19.03;71.26;98239.34;5049869;28;20102;-81
2021/08/06 11:45:02;;;;;;;1.77;0.68;;;;;;;19.06;74.38;98255.38;5050597;28;20493;-81
2021/08/06 11:47:43;;;;;;;0.75;0.52;;;;;;;19.10;72.86;98248.22;5038486;28;20168;-81
2021/08/06 11:50:15;;;;;;;2.88;1.42;;;;;;;19.08;75.19;98242.97;5038122;28;20103;-80
2021/08/06 11:52:44;;;;;;;2.20;0.77;;;;;;;19.20;76.68;98255.75;5043971;28;20500;-81
2021/08/06 11:55:15;;;;;;;9.27;1.33;;;;;;;19.32;76.64;98237.09;5043107;28;20053;-80
2021/08/06 11:57:55;;;;;;;2.10;0.65;;;;;;;19.57;74.93;98241.13;5038330;28;20047;-81
2021/08/06 12:00:28;;;;;;;0.75;0.65;;;;;;;20.34;74.80;98241.53;5034512;28;20049;-81
2021/08/06 12:03:03;;;;;;;3.55;0.90;;;;;;;20.47;71.59;98235.50;5040083;28;20053;-81
2021/08/06 12:05:33;;;;;;;1.45;1.05;;;;;;;20.85;68.78;98225.06;5042715;28;20049;-81
2021/08/06 12:08:13;;;;;;;1.50;0.50;;;;;;;21.06;66.14;98229.78;5049429;28;20106;-81
2021/08/06 12:10:41;;;;;;;;;;;;;;;21.14;64.39;98220.94;5034679;28;20046;-81
2021/08/06 12:13:11;;;;;;;0.90;0.60;;;;;;;21.87;62.63;98200.34;5039834;28;19928;-81
2021/08/06 12:15:38;;;;;;;0.75;0.52;;;;;;;22.10;60.35;98209.94;5036117;28;20524;-82
2021/08/06 12:18:17;;;;;;;1.70;0.57;;;;;;;22.51;59.32;98223.59;5034659;28;20088;-82
2021/08/06 12:20:53;;;;;;;0.35;0.35;;;;;;;22.63;59.01;98212.97;5036223;28;20111;-82
2021/08/06 12:23:25;;;;;;;0.77;0.60;;;;;;;22.75;60.08;98197.97;5037839;28;20507;-81
2021/08/06 12:26:13;;;;;;;2.83;0.65;;;;;;;22.89;57.11;98211.97;5048280;28;20049;-82
2021/08/06 12:28:49;;;;;;;2.15;0.73;;;;;;;22.64;57.21;98191.66;5034697;28;20054;-82
2021/08/06 12:31:26;;;;;;;2.03;0.98;;;;;;;22.46;56.31;98190.38;5035765;28;20577;-82
2021/08/06 12:34:08;;;;;;;4.55;0.50;;;;;;;22.59;55.95;98198.03;5043781;28;20045;-81
2021/08/06 12:36:39;;;;;;;0.30;0.25;;;;;;;22.75;55.49;98171.06;5045705;28;20048;-80
2021/08/06 12:39:14;;;;;;;2.88;0.60;;;;;;;22.77;51.56;98181.88;5044111;28;20057;-80
2021/08/06 12:41:44;;;;;;;2.28;0.60;;;;;;;23.06;52.82;98183.84;5030511;28;20075;-82
2021/08/06 12:44:16;;;;;;;4.72;0.60;;;;;;;23.26;50.72;98180.91;5049649;28;20057;-82
2021/08/06 12:46:57;;;;;;;1.02;0.50;;;;;;;23.24;50.98;98174.81;5032859;28;20081;-81
2021/08/06 12:49:27;;;;;;;2.88;0.88;;;;;;;23.41;50.09;98174.41;5051328;28;20069;-82
2021/08/06 12:52:01;;;;;;;;;;;;;;;23.48;48.17;98177.63;5047839;28;20488;-83
2021/08/06 12:54:40;;;;;;;1.70;0.65;;;;;;;23.64;50.13;98178.28;5035681;28;19982;-82
2021/08/06 12:57:09;;;;;;;0.93;0.50;;;;;;;23.50;47.77;98160.69;5043207;28;20061;-81
2021/08/06 12:59:36;;;;;;;3.97;0.95;;;;;;;23.71;49.16;98161.31;5048233;28;20068;-83
2021/08/06 13:02:27;;;;;;;1.95;0.40;;;;;;;23.38;47.46;98171.38;5042061;28;20049;-83
2021/08/06 13:05:07;;;;;;;0.80;0.40;;;;;;;23.40;50.06;98166.38;5032993;28;20077;-81
2021/08/06 13:07:35;;;;;;;0.40;0.40;;;;;;;23.63;46.56;98168.31;5036232;28;20049;-82
2021/08/06 13:10:27;;;;;;;1.25;0.57;;;;;;;23.84;45.95;98165.31;5050713;28;20045;-83
2021/08/06 13:12:55;;;;;;;4.22;0.47;;;;;;;23.50;47.57;98169.00;5042127;28;20045;-82
2021/08/06 13:15:24;;;;;;;2.42;0.43;;;;;;;23.61;46.57;98151.13;5052830;28;20052;-82
2021/08/06 13:17:52;;;;;;;0.95;0.80;;;;;;;23.78;45.70;98153.44;5051009;28;20138;-82
2021/08/06 13:20:22;;;;;;;1.17;0.43;;;;;;;24.08;44.53;98164.47;5037513;28;20044;-84
2021/08/06 13:22:54;;;;;;;1.67;0.38;;;;;;;24.12;43.97;98146.09;5052421;28;20416;-83
2021/08/06 13:25:21;;;;;;;2.33;0.63;;;;;;;24.06;43.91;98136.16;5051907;28;20080;-82
2021/08/06 13:27:48;;;;;;;1.45;0.52;;;;;;;24.27;41.35;98137.56;5032825;28;20045;-84
2021/08/06 13:30:15;;;;;;;2.38;0.40;;;;;;;23.73;43.36;98156.28;5031007;28;20393;-83
2021/08/06 13:32:42;;;;;;;1.10;0.50;;;;;;;23.33;44.28;98150.91;5033182;28;20045;-82
2021/08/06 13:35:09;;;;;;;1.13;0.50;;;;;;;23.75;44.91;98153.22;5032315;28;20060;-83
2021/08/06 13:37:36;;;;;;;0.82;0.38;;;;;;;23.73;44.60;98156.28;5039347;28;20040;-82
2021/08/06 13:40:05;;;;;;;0.40;0.30;;;;;;;24.13;43.51;98161.63;5051207;28;20052;-82
2021/08/06 13:42:32;;;;;;;2.35;0.50;;;;;;;24.05;44.62;98174.22;5051361;28;20052;-82
2021/08/06 13:44:59;;;;;;;1.00;0.68;;;;;;;23.73;44.65;98177.66;5050809;28;20558;-82
2021/08/06 13:47:26;;;;;;;1.75;0.60;;;;;;;23.91;45.09;98173.28;5050296;28;20080;-82
2021/08/06 13:49:54;;;;;;;1.38;0.52;;;;;;;23.51;45.46;98170.66;5039625;28;20052;-82
2021/08/06 13:52:20;;;;;;;1.90;0.40;;;;;;;23.20;46.44;98154.38;5035042;28;20045;-81
2021/08/06 13:54:47;;;;;;;0.70;0.38;;;;;;;23.37;46.94;98161.41;5032202;28;20512;-82
2021/08/06 13:57:16;;;;;;;1.20;0.50;;;;;;;23.71;46.02;98157.69;5036807;28;20110;-82
2021/08/06 13:59:43;;;;;;;3.00;0.60;;;;;;;24.06;46.10;98172.25;5032084;28;20053;-82
2021/08/06 14:02:09;;;;;;;2.08;0.35;;;;;;;23.66;46.59;98178.81;5034716;28;20047;-81
2021/08/06 14:04:37;;;;;;;1.65;0.32;;;;;;;23.31;47.03;98177.28;5031340;28;20049;-82
2021/08/06 14:07:05;;;;;;;2.63;0.60;;;;;;;23.25;49.30;98184.81;5031585;28;20511;-82
2021/08/06 14:09:32;;;;;;;2.05;0.55;;;;;;;23.78;47.56;98180.34;5044014;28;20068;-82
2021/08/06 14:11:59;;;;;;;4.57;1.02;;;;;;;24.06;48.40;98172.25;5031683;28;20049;-81
2021/08/06 14:14:27;;;;;;;6.80;0.73;;;;;;;23.78;47.35;98172.84;5049858;28;20045;-81
2021/08/06 14:16:54;;;;;;;1.77;0.50;;;;;;;23.81;49.03;98177.81;5052122;28;20225;-82
2021/08/06 14:19:21;;;;;;;1.80;0.50;;;;;;;23.58;47.62;98176.69;5048008;28;20061;-82
2021/08/06 14:21:49;;;;;;;1.10;0.50;;;;;;;23.54;47.75;98181.19;5032237;28;20045;-82
2021/08/06 14:24:16;;;;;;;2.90;0.88;;;;;;;23.94;49.06;98178.28;5031338;28;20056;-82
2021/08/06 14:26:44;;;;;;;2.00;0.57;;;;;;;23.92;47.59;98178.56;5050280;28;20053;-82
2021/08/06 14:29:11;;;;;;;3.63;0.95;;;;;;;23.95;48.19;98179.91;5051392;28;20124;-81
2021/08/06 14:31:42;;;;;;;2.42;0.50;;;;;;;23.90;47.45;98191.06;5045188;28;20048;-82
2021/08/06 14:34:09;;;;;;;1.67;0.55;;;;;;;23.60;47.82;98163.34;5051547;28;20516;-81
2021/08/06 14:36:36;;;;;;;2.35;0.50;;;;;;;24.20;46.39;98181.53;5032402;28;20471;-82
2021/08/06 14:39:04;;;;;;;1.25;0.52;;;;;;;24.18;44.65;98170.72;5031824;28;20045;-82
2021/08/06 14:41:34;;;;;;;1.27;0.60;;;;;;;24.86;44.47;98187.25;5037237;28;20041;-83
2021/08/06 14:44:01;;;;;;;3.70;0.65;;;;;;;24.06;46.38;98191.69;5051558;28;20326;-82
2021/08/06 14:46:29;;;;;;;2.53;0.70;;;;;;;23.40;46.86;98183.81;5051014;28;20060;-83
2021/08/06 14:48:58;;;;;;;0.50;0.50;;;;;;;23.35;47.51;98200.53;5043068;28;20053;-82
2021/08/06 14:51:26;;;;;;;1.20;0.45;;;;;;;23.18;49.38;98200.13;5050439;28;20482;-82
2021/08/06 14:53:53;;;;;;;3.17;0.88;;;;;;;23.07;49.18;98189.09;5051470;28;20495;-83
2021/08/06 14:56:19;;;;;;;6.15;0.75;;;;;;;23.10;49.58;98199.63;5055093;28;20132;-84
2021/08/06 14:58:46;;;;;;;3.35;0.63;;;;;;;23.07;49.52;98202.13;5049699;28;20045;-82
2021/08/06 15:01:13;;;;;;;3.03;0.70;;;;;;;22.88;51.04;98202.81;5035435;28;20042;-82
2021/08/06 15:03:40;;;;;;;4.47;0.77;;;;;;;22.63;50.86;98184.47;5035975;28;20048;-82
2021/08/06 15:06:09;;;;;;;3.08;0.32;;;;;;;22.55;50.72;98194.22;5054916;28;20052;-82
2021/08/06 15:08:36;;;;;;;3.60;0.95;;;;;;;22.53;50.86;98198.38;5054389;28;20515;-83
2021/08/06 15:11:03;;;;;;;2.83;0.63;;;;;;;22.61;54.10;98212.47;5054087;28;20492;-82
2021/08/06 15:13:29;;;;;;;4.22;0.80;;;;;;;22.68;51.78;98208.53;5054664;28;20045;-83
2021/08/06 15:15:59;;;;;;;2.13;0.60;;;;;;;22.69;51.69;98208.25;5054552;28;20049;-82
2021/08/06 15:18:27;;;;;;;3.95;0.85;;;;;;;22.72;52.51;98220.69;5051551;28;20049;-83
2021/08/06 15:20:54;;;;;;;1.80;0.57;;;;;;;22.69;52.20;98212.94;5042108;28;20381;-83
2021/08/06 15:23:23;;;;;;;3.25;0.70;;;;;;;22.68;53.03;98219.63;5054217;28;20393;-82
2021/08/06 15:25:50;;;;;;;2.53;0.70;;;;;;;22.97;53.56;98217.75;5034609;28;20041;-82
2021/08/06 15:28:18;;;;;;;2.50;0.82;;;;;;;23.29;52.28;98224.69;5035290;28;20049;-82
2021/08/06 15:30:45;;;;;;;7.75;0.85;;;;;;;23.59;51.43;98225.53;5049396;28;20053;-83
2021/08/06 15:33:12;;;;;;;2.67;0.50;;;;;;;23.51;50.81;98220.59;5039901;28;20053;-81
2021/08/06 15:35:45;;;;;;;4.72;0.77;;;;;;;23.80;50.58;98203.06;5034836;28;20481;-82
2021/08/06 15:38:12;;;;;;;4.40;0.80;;;;;;;23.51;49.41;98206.72;5046727;28;20103;-82
2021/08/06 15:40:41;;;;;;;3.72;0.65;;;;;;;23.60;50.66;98212.47;5053277;28;20048;-82
2021/08/06 15:43:07;;;;;;;1.23;0.65;;;;;;;23.38;50.71;98208.25;5048019;28;20042;-83
2021/08/06 15:45:34;;;;;;;0.98;0.40;;;;;;;23.83;51.32;98203.34;5033604;28;20053;-82
2021/08/06 15:48:01;;;;;;;2.53;0.70;;;;;;;24.12;50.13;98204.41;5054483;28;20064;-82
2021/08/06 15:50:28;;;;;;;3.03;0.50;;;;;;;24.04;48.58;98189.22;5034996;28;20057;-82
2021/08/06 15:52:57;;;;;;;2.80;0.73;;;;;;;23.72;48.83;98204.56;5034627;28;20053;-81
2021/08/06 15:55:24;;;;;;;3.25;0.60;;;;;;;23.64;48.73;98191.34;5033576;28;20132;-82
2021/08/06 15:57:53;;;;;;;4.15;0.50;;;;;;;23.31;49.90;98194.72;5046679;28;20047;-82
2021/08/06 16:00:20;;;;;;;1.30;1.13;;;;;;;23.17;51.25;98187.38;5043319;28;20053;-82
2021/08/06 16:02:48;;;;;;;2.63;0.93;;;;;;;22.72;50.81;98182.72;5034099;28;20302;-82
2021/08/06 16:05:15;;;;;;;2.10;0.70;;;;;;;23.02;51.85;98166.97;5034089;28;20088;-82
2021/08/06 16:07:42;;;;;;;1.00;0.50;;;;;;;23.26;53.69;98180.06;5041943;28;20052;-82
2021/08/06 16:10:10;;;;;;;1.30;0.52;;;;;;;23.50;51.08;98180.09;5054081;28;20405;-82
2021/08/06 16:12:37;;;;;;;2.53;0.70;;;;;;;23.75;49.95;98189.28;5052383;28;20120;-82
2021/08/06 16:15:06;;;;;;;2.50;0.60;;;;;;;23.98;50.46;98182.94;5053359;28;20060;-82
2021/08/06 16:17:33;;;;;;;1.15;0.65;;;;;;;24.26;49.27;98174.78;5038070;28;20099;-82
2021/08/06 16:20:00;;;;;;;3.45;0.60;;;;;;;23.87;48.22;98173.06;5033766;28;20080;-83
2021/08/06 16:22:27;;;;;;;4.07;0.85;;;;;;;23.51;48.36;98165.13;5033811;28;20053;-83
2021/08/06 16:24:54;;;;;;;3.05;0.57;;;;;;;23.45;49.90;98169.88;5049932;28;20049;-82
2021/08/06 16:27:21;;;;;;;0.70;0.65;;;;;;;23.52;49.97;98180.66;5052195;28;20091;-83
2021/08/06 16:29:48;;;;;;;1.05;0.70;;;;;;;23.38;51.29;98163.03;5033120;28;20061;-83
2021/08/06 16:32:18;;;;;;;4.70;0.63;;;;;;;23.10;50.76;98176.63;5052311;28;20052;-82
2021/08/06 16:34:45;;;;;;;1.48;0.40;;;;;;;23.01;51.89;98181.13;5035629;28;20378;-83
2021/08/06 16:37:12;;;;;;;0.70;0.70;;;;;;;22.63;50.60;98156.78;5033278;28;20061;-82
2021/08/06 16:39:39;;;;;;;2.58;1.05;;;;;;;22.61;52.35;98170.91;5043688;28;20447;-83
2021/08/06 16:42:06;;;;;;;1.67;0.80;;;;;;;22.43;50.58;98163.25;5053777;28;20057;-82
2021/08/06 16:44:33;;;;;;;1.33;0.70;;;;;;;22.42;50.49;98161.63;5052326;28;20044;-82
2021/08/06 16:46:59;;;;;;;0.70;0.70;;;;;;;22.40;51.29;98177.69;5051915;28;20045;-82
2021/08/06 16:49:28;;;;;;;3.92;0.60;;;;;;;22.32;51.93;98181.06;5049395;28;20049;-82
2021/08/06 16:51:55;;;;;;;3.28;0.70;;;;;;;22.40;53.27;98188.75;5033842;28;20460;-82
2021/08/06 16:54:21;;;;;;;3.97;0.93;;;;;;;22.42;53.45;98173.53;5032457;28;20050;-83
2021/08/06 16:56:50;;;;;;;4.05;0.75;;;;;;;22.28;53.44;98181.59;5051409;28;20045;-82
2021/08/06 16:59:17;;;;;;;2.85;0.80;;;;;;;22.02;52.86;98169.00;5052458;28;20041;-83
2021/08/06 17:01:44;;;;;;;1.50;1.05;;;;;;;22.02;53.17;98186.44;5038908;28;20124;-82
2021/08/06 17:04:11;;;;;;;1.42;0.77;;;;;;;22.04;54.25;98183.38;5032695;28;20052;-82
2021/08/06 17:06:39;;;;;;;6.72;0.90;;;;;;;22.04;52.52;98197.22;5039867;28;20421;-82
2021/08/06 17:09:06;;;;;;;3.50;0.77;;;;;;;22.13;53.68;98189.16;5032766;28;20049;-82
2021/08/06 17:11:34;;;;;;;1.48;0.68;;;;;;;22.00;52.86;98190.63;5032866;28;20526;-82
2021/08/06 17:14:01;;;;;;;6.45;1.00;;;;;;;21.92;51.96;98172.66;5050485;28;20503;-82
2021/08/06 17:16:28;;;;;;;11.90;1.20;;;;;;;21.86;52.49;98188.47;5051960;28;20495;-82
2021/08/06 17:18:58;;;;;;;7.05;1.13;;;;;;;21.92;53.37;98172.66;5046174;28;20472;-82
2021/08/06 17:21:25;;;;;;;4.32;1.50;;;;;;;22.02;53.07;98189.19;5044146;28;20088;-82
2021/08/06 17:23:54;;;;;;;2.67;1.58;;;;;;;21.96;52.82;98178.44;5051553;28;20127;-82
2021/08/06 17:26:20;;;;;;;5.88;1.73;;;;;;;21.94;54.23;98198.09;5052761;28;20049;-82
2021/08/06 17:28:53;;;;;;;4.20;1.00;;;;;;;21.72;53.87;98176.31;5051702;28;20075;-82
2021/08/06 17:31:20;;;;;;;6.68;0.88;;;;;;;21.55;54.94;98185.78;5051264;28;20489;-82
2021/08/06 17:33:47;;;;;;;5.82;0.93;;;;;;;21.76;55.61;98180.19;5047098;28;20049;-82
2021/08/06 17:36:19;;;;;;;3.22;0.88;;;;;;;21.61;55.31;98180.25;5047594;28;20053;-82
2021/08/06 17:38:55;;;;;;;2.40;0.98;;;;;;;21.50;55.52;98190.53;5036557;28;20045;-82
